sensor_id;sensor_type;location;lat;lon;timestamp;pressure;altitude;pressure_sealevel;temperature;humidity
74466;BME280;62916;50.044;15.938;2023-05-27T00:02:13;99968.77;;;23.54;40.11
74466;BME280;62916;50.044;15.938;2023-05-27T00:04:44;99962.52;;;23.52;40.17
74466;BME280;62916;50.044;15.938;2023-05-27T00:07:15;99962.75;;;23.50;40.07
74466;BME280;62916;50.044;15.938;2023-05-27T00:09:46;99958.12;;;23.48;40.20
74466;BME280;62916;50.044;15.938;2023-05-27T00:12:17;99956.55;;;23.47;40.16
74466;BME280;62916;50.044;15.938;2023-05-27T00:14:48;99953.92;;;23.46;40.27
74466;BME280;62916;50.044;15.938;2023-05-27T00:17:19;99958.34;;;23.45;40.31
74466;BME280;62916;50.044;15.938;2023-05-27T00:19:52;99958.83;;;23.44;40.35
74466;BME280;62916;50.044;15.938;2023-05-27T00:22:24;99958.17;;;23.42;40.29
74466;BME280;62916;50.044;15.938;2023-05-27T00:24:57;99959.94;;;23.42;40.32
74466;BME280;62916;50.044;15.938;2023-05-27T00:27:28;99960.41;;;23.42;40.42
74466;BME280;62916;50.044;15.938;2023-05-27T00:29:59;99956.61;;;23.40;40.48
74466;BME280;62916;50.044;15.938;2023-05-27T00:32:30;99957.50;;;23.40;40.40
74466;BME280;62916;50.044;15.938;2023-05-27T00:35:01;99952.67;;;23.41;40.33
74466;BME280;62916;50.044;15.938;2023-05-27T00:37:32;99952.52;;;23.41;40.38
74466;BME280;62916;50.044;15.938;2023-05-27T00:40:03;99955.41;;;23.40;40.36
74466;BME280;62916;50.044;15.938;2023-05-27T00:42:36;99952.09;;;23.40;40.21
74466;BME280;62916;50.044;15.938;2023-05-27T00:45:10;99956.27;;;23.40;40.36
74466;BME280;62916;50.044;15.938;2023-05-27T00:47:41;99952.34;;;23.39;40.23
74466;BME280;62916;50.044;15.938;2023-05-27T00:50:13;99954.60;;;23.39;40.23
74466;BME280;62916;50.044;15.938;2023-05-27T00:52:47;99951.58;;;23.37;40.32
74466;BME280;62916;50.044;15.938;2023-05-27T00:55:18;99956.48;;;23.36;40.24
74466;BME280;62916;50.044;15.938;2023-05-27T00:57:49;99957.05;;;23.35;40.18
74466;BME280;62916;50.044;15.938;2023-05-27T01:00:23;99953.30;;;23.33;40.28
74466;BME280;62916;50.044;15.938;2023-05-27T01:02:54;99954.94;;;23.34;40.32
74466;BME280;62916;50.044;15.938;2023-05-27T01:05:25;99952.27;;;23.32;40.36
74466;BME280;62916;50.044;15.938;2023-05-27T01:08:11;99952.35;;;23.31;40.27
74466;BME280;62916;50.044;15.938;2023-05-27T01:10:48;99951.27;;;23.29;40.31
74466;BME280;62916;50.044;15.938;2023-05-27T01:13:30;99952.66;;;23.28;40.30
74466;BME280;62916;50.044;15.938;2023-05-27T01:16:05;99953.85;;;23.27;40.45
74466;BME280;62916;50.044;15.938;2023-05-27T01:18:40;99953.55;;;23.26;40.40
74466;BME280;62916;50.044;15.938;2023-05-27T01:21:14;99956.48;;;23.24;40.48
74466;BME280;62916;50.044;15.938;2023-05-27T01:23:48;99954.70;;;23.22;40.30
74466;BME280;62916;50.044;15.938;2023-05-27T01:26:19;99952.32;;;23.20;40.50
74466;BME280;62916;50.044;15.938;2023-05-27T01:28:51;99953.48;;;23.21;40.55
74466;BME280;62916;50.044;15.938;2023-05-27T01:31:27;99952.75;;;23.21;40.57
74466;BME280;62916;50.044;15.938;2023-05-27T01:34:03;99947.39;;;23.20;40.56
74466;BME280;62916;50.044;15.938;2023-05-27T01:36:41;99949.95;;;23.18;40.43
74466;BME280;62916;50.044;15.938;2023-05-27T01:39:14;99952.39;;;23.17;40.51
74466;BME280;62916;50.044;15.938;2023-05-27T01:41:46;99950.83;;;23.17;40.36
74466;BME280;62916;50.044;15.938;2023-05-27T01:44:18;99950.90;;;23.16;40.47
74466;BME280;62916;50.044;15.938;2023-05-27T01:46:50;99958.62;;;23.14;40.39
74466;BME280;62916;50.044;15.938;2023-05-27T01:49:21;99958.77;;;23.13;40.47
74466;BME280;62916;50.044;15.938;2023-05-27T01:51:51;99955.98;;;23.10;40.33
74466;BME280;62916;50.044;15.938;2023-05-27T01:54:23;99954.78;;;23.09;40.33
74466;BME280;62916;50.044;15.938;2023-05-27T01:56:54;99954.88;;;23.08;40.34
74466;BME280;62916;50.044;15.938;2023-05-27T01:59:25;99955.16;;;23.07;40.41
74466;BME280;62916;50.044;15.938;2023-05-27T02:01:55;99954.17;;;23.06;40.28
74466;BME280;62916;50.044;15.938;2023-05-27T02:04:26;99953.88;;;23.04;40.21
74466;BME280;62916;50.044;15.938;2023-05-27T02:06:57;99949.73;;;23.02;40.24
74466;BME280;62916;50.044;15.938;2023-05-27T02:09:28;99948.76;;;23.00;40.31
74466;BME280;62916;50.044;15.938;2023-05-27T02:11:59;99942.95;;;22.99;40.23
74466;BME280;62916;50.044;15.938;2023-05-27T02:14:30;99944.92;;;22.98;40.30
74466;BME280;62916;50.044;15.938;2023-05-27T02:17:02;99942.34;;;22.97;40.25
74466;BME280;62916;50.044;15.938;2023-05-27T02:19:33;99947.99;;;22.96;40.15
74466;BME280;62916;50.044;15.938;2023-05-27T02:22:05;99951.33;;;22.97;40.14
74466;BME280;62916;50.044;15.938;2023-05-27T02:24:35;99950.33;;;22.96;40.30
74466;BME280;62916;50.044;15.938;2023-05-27T02:27:07;99949.04;;;22.95;40.28
74466;BME280;62916;50.044;15.938;2023-05-27T02:29:38;99947.55;;;22.93;40.18
74466;BME280;62916;50.044;15.938;2023-05-27T02:32:09;99946.20;;;22.93;40.22
74466;BME280;62916;50.044;15.938;2023-05-27T02:34:40;99945.08;;;22.93;40.14
74466;BME280;62916;50.044;15.938;2023-05-27T02:37:11;99946.27;;;22.91;40.25
74466;BME280;62916;50.044;15.938;2023-05-27T02:39:42;99951.18;;;22.90;40.05
74466;BME280;62916;50.044;15.938;2023-05-27T02:42:13;99956.03;;;22.91;40.04
74466;BME280;62916;50.044;15.938;2023-05-27T02:44:44;99953.47;;;22.89;40.01
74466;BME280;62916;50.044;15.938;2023-05-27T02:47:15;99958.21;;;22.87;40.01
74466;BME280;62916;50.044;15.938;2023-05-27T02:49:45;99959.74;;;22.88;40.12
74466;BME280;62916;50.044;15.938;2023-05-27T02:52:17;99963.89;;;22.87;39.81
74466;BME280;62916;50.044;15.938;2023-05-27T02:54:48;99969.15;;;22.87;39.88
74466;BME280;62916;50.044;15.938;2023-05-27T02:57:19;99970.32;;;22.85;39.76
74466;BME280;62916;50.044;15.938;2023-05-27T02:59:50;99970.41;;;22.82;39.73
74466;BME280;62916;50.044;15.938;2023-05-27T03:02:20;99978.05;;;22.80;39.59
74466;BME280;62916;50.044;15.938;2023-05-27T03:04:51;99980.95;;;22.79;39.60
74466;BME280;62916;50.044;15.938;2023-05-27T03:07:25;99977.40;;;22.76;39.75
74466;BME280;62916;50.044;15.938;2023-05-27T03:09:58;99977.63;;;22.76;39.59
74466;BME280;62916;50.044;15.938;2023-05-27T03:12:29;99975.77;;;22.74;39.60
74466;BME280;62916;50.044;15.938;2023-05-27T03:15:00;99978.56;;;22.73;39.52
74466;BME280;62916;50.044;15.938;2023-05-27T03:17:32;99974.16;;;22.72;39.47
74466;BME280;62916;50.044;15.938;2023-05-27T03:20:04;99976.44;;;22.71;39.34
74466;BME280;62916;50.044;15.938;2023-05-27T03:22:37;99981.60;;;22.71;39.53
74466;BME280;62916;50.044;15.938;2023-05-27T03:25:09;99981.27;;;22.71;39.32
74466;BME280;62916;50.044;15.938;2023-05-27T03:27:40;99975.40;;;22.70;39.18
74466;BME280;62916;50.044;15.938;2023-05-27T03:30:12;99979.79;;;22.69;39.11
74466;BME280;62916;50.044;15.938;2023-05-27T03:32:43;99975.48;;;22.67;39.38
74466;BME280;62916;50.044;15.938;2023-05-27T03:35:14;99981.05;;;22.65;39.40
74466;BME280;62916;50.044;15.938;2023-05-27T03:37:45;99984.67;;;22.65;39.30
74466;BME280;62916;50.044;15.938;2023-05-27T03:40:16;99983.17;;;22.66;39.30
74466;BME280;62916;50.044;15.938;2023-05-27T03:42:48;99986.45;;;22.67;39.19
74466;BME280;62916;50.044;15.938;2023-05-27T03:45:18;99986.95;;;22.67;39.20
74466;BME280;62916;50.044;15.938;2023-05-27T03:47:49;99986.77;;;22.65;39.23
74466;BME280;62916;50.044;15.938;2023-05-27T03:50:20;99987.52;;;22.63;39.30
74466;BME280;62916;50.044;15.938;2023-05-27T03:52:51;99991.54;;;22.63;39.19
74466;BME280;62916;50.044;15.938;2023-05-27T03:55:23;99992.41;;;22.61;39.22
74466;BME280;62916;50.044;15.938;2023-05-27T03:57:54;99990.10;;;22.62;39.21
74466;BME280;62916;50.044;15.938;2023-05-27T04:00:25;99991.59;;;22.61;39.26
74466;BME280;62916;50.044;15.938;2023-05-27T04:02:57;99995.41;;;22.60;39.40
74466;BME280;62916;50.044;15.938;2023-05-27T04:05:29;99998.57;;;22.60;39.46
74466;BME280;62916;50.044;15.938;2023-05-27T04:08:00;99997.86;;;22.60;39.38
74466;BME280;62916;50.044;15.938;2023-05-27T04:10:31;99995.94;;;22.61;39.25
74466;BME280;62916;50.044;15.938;2023-05-27T04:13:02;99995.77;;;22.59;39.35
74466;BME280;62916;50.044;15.938;2023-05-27T04:15:33;99997.45;;;22.59;39.41
74466;BME280;62916;50.044;15.938;2023-05-27T04:18:05;99999.05;;;22.59;39.50
74466;BME280;62916;50.044;15.938;2023-05-27T04:20:40;100002.57;;;22.58;39.47
74466;BME280;62916;50.044;15.938;2023-05-27T04:23:14;100004.70;;;22.56;39.60
74466;BME280;62916;50.044;15.938;2023-05-27T04:25:44;100008.20;;;22.56;39.58
74466;BME280;62916;50.044;15.938;2023-05-27T04:28:18;100004.98;;;22.56;39.49
74466;BME280;62916;50.044;15.938;2023-05-27T04:30:49;100007.52;;;22.56;39.51
74466;BME280;62916;50.044;15.938;2023-05-27T04:33:23;100010.02;;;22.57;39.54
74466;BME280;62916;50.044;15.938;2023-05-27T04:35:54;100003.58;;;22.56;39.62
74466;BME280;62916;50.044;15.938;2023-05-27T04:38:25;100006.22;;;22.57;39.60
74466;BME280;62916;50.044;15.938;2023-05-27T04:40:56;100008.99;;;22.56;39.64
74466;BME280;62916;50.044;15.938;2023-05-27T04:43:28;100012.71;;;22.57;39.63
74466;BME280;62916;50.044;15.938;2023-05-27T04:45:59;100013.61;;;22.57;39.80
74466;BME280;62916;50.044;15.938;2023-05-27T04:48:29;100012.16;;;22.59;39.66
74466;BME280;62916;50.044;15.938;2023-05-27T04:51:00;100021.60;;;22.60;39.74
74466;BME280;62916;50.044;15.938;2023-05-27T04:53:31;100017.87;;;22.61;39.76
74466;BME280;62916;50.044;15.938;2023-05-27T04:56:04;100013.23;;;22.62;39.71
74466;BME280;62916;50.044;15.938;2023-05-27T04:58:37;100015.80;;;22.63;39.97
74466;BME280;62916;50.044;15.938;2023-05-27T05:01:09;100016.98;;;22.64;40.10
74466;BME280;62916;50.044;15.938;2023-05-27T05:03:47;100019.66;;;22.65;39.96
74466;BME280;62916;50.044;15.938;2023-05-27T05:06:31;100018.85;;;22.66;39.96
74466;BME280;62916;50.044;15.938;2023-05-27T05:09:02;100021.61;;;22.68;40.04
74466;BME280;62916;50.044;15.938;2023-05-27T05:11:34;100015.23;;;22.69;40.07
74466;BME280;62916;50.044;15.938;2023-05-27T05:14:05;100012.41;;;22.71;40.26
74466;BME280;62916;50.044;15.938;2023-05-27T05:16:36;100010.51;;;22.73;40.07
74466;BME280;62916;50.044;15.938;2023-05-27T05:19:07;100007.33;;;22.75;40.19
74466;BME280;62916;50.044;15.938;2023-05-27T05:21:38;100006.63;;;22.77;40.21
74466;BME280;62916;50.044;15.938;2023-05-27T05:24:10;100005.53;;;22.79;40.31
74466;BME280;62916;50.044;15.938;2023-05-27T05:26:41;100003.80;;;22.80;40.27
74466;BME280;62916;50.044;15.938;2023-05-27T05:29:13;100005.45;;;22.82;40.36
74466;BME280;62916;50.044;15.938;2023-05-27T05:31:44;100002.78;;;22.82;40.17
74466;BME280;62916;50.044;15.938;2023-05-27T05:34:15;100004.13;;;22.82;40.19
74466;BME280;62916;50.044;15.938;2023-05-27T05:36:46;100003.67;;;22.83;40.16
74466;BME280;62916;50.044;15.938;2023-05-27T05:39:17;100009.83;;;22.83;39.98
74466;BME280;62916;50.044;15.938;2023-05-27T05:41:50;100011.92;;;22.83;40.04
74466;BME280;62916;50.044;15.938;2023-05-27T05:44:22;100015.02;;;22.84;40.04
74466;BME280;62916;50.044;15.938;2023-05-27T05:46:53;100014.29;;;22.83;39.91
74466;BME280;62916;50.044;15.938;2023-05-27T05:49:24;100016.55;;;22.84;39.95
74466;BME280;62916;50.044;15.938;2023-05-27T05:51:55;100020.76;;;22.86;40.05
74466;BME280;62916;50.044;15.938;2023-05-27T05:54:26;100024.41;;;22.88;40.00
74466;BME280;62916;50.044;15.938;2023-05-27T05:56:57;100024.91;;;22.84;39.66
74466;BME280;62916;50.044;15.938;2023-05-27T05:59:27;100025.96;;;22.80;39.58
74466;BME280;62916;50.044;15.938;2023-05-27T06:01:58;100025.67;;;22.78;39.51
74466;BME280;62916;50.044;15.938;2023-05-27T06:04:29;100026.99;;;22.77;39.20
74466;BME280;62916;50.044;15.938;2023-05-27T06:07:00;100024.60;;;22.73;39.25
74466;BME280;62916;50.044;15.938;2023-05-27T06:09:32;100030.84;;;22.71;39.00
74466;BME280;62916;50.044;15.938;2023-05-27T06:12:04;100031.18;;;22.69;39.00
74466;BME280;62916;50.044;15.938;2023-05-27T06:14:35;100031.02;;;22.67;38.90
74466;BME280;62916;50.044;15.938;2023-05-27T06:17:07;100031.02;;;22.66;38.68
74466;BME280;62916;50.044;15.938;2023-05-27T06:19:38;100035.55;;;22.66;38.90
74466;BME280;62916;50.044;15.938;2023-05-27T06:22:09;100032.22;;;22.66;38.85
74466;BME280;62916;50.044;15.938;2023-05-27T06:24:40;100037.38;;;22.68;38.76
74466;BME280;62916;50.044;15.938;2023-05-27T06:27:11;100036.41;;;22.73;38.93
74466;BME280;62916;50.044;15.938;2023-05-27T06:29:42;100039.77;;;22.77;38.94
74466;BME280;62916;50.044;15.938;2023-05-27T06:32:13;100039.38;;;22.80;38.81
74466;BME280;62916;50.044;15.938;2023-05-27T06:34:45;100042.53;;;22.80;38.81
74466;BME280;62916;50.044;15.938;2023-05-27T06:37:17;100043.80;;;22.81;38.87
74466;BME280;62916;50.044;15.938;2023-05-27T06:39:48;100044.26;;;22.85;38.85
74466;BME280;62916;50.044;15.938;2023-05-27T06:42:19;100045.20;;;22.85;38.93
74466;BME280;62916;50.044;15.938;2023-05-27T06:44:52;100049.80;;;22.88;38.95
74466;BME280;62916;50.044;15.938;2023-05-27T06:47:23;100049.45;;;22.89;38.97
74466;BME280;62916;50.044;15.938;2023-05-27T06:49:54;100045.83;;;22.89;39.02
74466;BME280;62916;50.044;15.938;2023-05-27T06:52:25;100044.05;;;22.89;39.07
74466;BME280;62916;50.044;15.938;2023-05-27T06:54:56;100044.57;;;22.91;39.18
74466;BME280;62916;50.044;15.938;2023-05-27T06:57:27;100035.89;;;22.92;39.02
74466;BME280;62916;50.044;15.938;2023-05-27T06:59:58;100045.27;;;22.93;39.14
74466;BME280;62916;50.044;15.938;2023-05-27T07:02:29;100044.27;;;22.94;39.03
74466;BME280;62916;50.044;15.938;2023-05-27T07:05:00;100047.90;;;22.94;38.94
74466;BME280;62916;50.044;15.938;2023-05-27T07:07:31;100050.34;;;22.94;39.10
74466;BME280;62916;50.044;15.938;2023-05-27T07:10:02;100044.63;;;22.93;38.96
74466;BME280;62916;50.044;15.938;2023-05-27T07:12:35;100045.67;;;22.92;39.18
74466;BME280;62916;50.044;15.938;2023-05-27T07:15:08;100046.47;;;22.92;39.08
74466;BME280;62916;50.044;15.938;2023-05-27T07:17:39;100050.96;;;22.91;39.27
74466;BME280;62916;50.044;15.938;2023-05-27T07:20:12;100053.42;;;22.92;39.18
74466;BME280;62916;50.044;15.938;2023-05-27T07:22:43;100049.05;;;22.93;39.42
74466;BME280;62916;50.044;15.938;2023-05-27T07:25:14;100050.06;;;22.94;39.20
74466;BME280;62916;50.044;15.938;2023-05-27T07:27:45;100047.92;;;22.93;39.25
74466;BME280;62916;50.044;15.938;2023-05-27T07:30:16;100042.98;;;22.91;39.28
74466;BME280;62916;50.044;15.938;2023-05-27T07:32:48;100044.21;;;22.92;39.27
74466;BME280;62916;50.044;15.938;2023-05-27T07:35:19;100040.04;;;22.94;39.43
74466;BME280;62916;50.044;15.938;2023-05-27T07:37:50;100033.40;;;22.95;39.42
74466;BME280;62916;50.044;15.938;2023-05-27T07:40:21;100030.18;;;22.95;39.37
74466;BME280;62916;50.044;15.938;2023-05-27T07:42:52;100038.27;;;22.95;39.41
74466;BME280;62916;50.044;15.938;2023-05-27T07:45:23;100033.34;;;22.95;39.45
74466;BME280;62916;50.044;15.938;2023-05-27T07:47:54;100032.51;;;22.95;39.41
74466;BME280;62916;50.044;15.938;2023-05-27T07:50:25;100031.41;;;22.95;39.41
74466;BME280;62916;50.044;15.938;2023-05-27T07:52:57;100028.59;;;22.96;39.39
74466;BME280;62916;50.044;15.938;2023-05-27T07:55:28;100021.96;;;22.96;39.50
74466;BME280;62916;50.044;15.938;2023-05-27T07:57:59;100018.86;;;22.95;39.46
74466;BME280;62916;50.044;15.938;2023-05-27T08:00:30;100018.00;;;22.96;39.59
74466;BME280;62916;50.044;15.938;2023-05-27T08:03:02;100016.52;;;22.96;39.45
74466;BME280;62916;50.044;15.938;2023-05-27T08:05:33;100013.56;;;22.97;39.48
74466;BME280;62916;50.044;15.938;2023-05-27T08:08:04;100011.80;;;22.97;39.57
74466;BME280;62916;50.044;15.938;2023-05-27T08:10:35;100011.85;;;22.98;39.53
74466;BME280;62916;50.044;15.938;2023-05-27T08:13:06;100009.90;;;22.99;39.61
74466;BME280;62916;50.044;15.938;2023-05-27T08:15:37;100010.00;;;22.99;39.56
74466;BME280;62916;50.044;15.938;2023-05-27T08:18:08;100008.70;;;23.00;39.50
74466;BME280;62916;50.044;15.938;2023-05-27T08:20:39;100004.43;;;23.00;39.55
74466;BME280;62916;50.044;15.938;2023-05-27T08:23:10;100001.79;;;23.00;39.49
74466;BME280;62916;50.044;15.938;2023-05-27T08:25:41;100001.58;;;23.01;39.56
74466;BME280;62916;50.044;15.938;2023-05-27T08:28:12;100001.79;;;23.02;39.59
74466;BME280;62916;50.044;15.938;2023-05-27T08:30:43;99998.95;;;23.02;39.49
74466;BME280;62916;50.044;15.938;2023-05-27T08:33:14;99996.80;;;23.02;39.69
74466;BME280;62916;50.044;15.938;2023-05-27T08:35:45;99990.64;;;23.02;39.61
74466;BME280;62916;50.044;15.938;2023-05-27T08:38:17;99986.48;;;23.03;39.78
74466;BME280;62916;50.044;15.938;2023-05-27T08:40:48;99984.27;;;23.03;39.71
74466;BME280;62916;50.044;15.938;2023-05-27T08:43:20;99988.84;;;23.04;39.69
74466;BME280;62916;50.044;15.938;2023-05-27T08:45:52;99985.26;;;23.05;39.80
74466;BME280;62916;50.044;15.938;2023-05-27T08:48:25;99978.67;;;23.06;39.71
74466;BME280;62916;50.044;15.938;2023-05-27T08:50:56;99980.46;;;23.07;39.82
74466;BME280;62916;50.044;15.938;2023-05-27T08:53:29;99982.02;;;23.09;39.77
74466;BME280;62916;50.044;15.938;2023-05-27T08:56:02;99977.89;;;23.09;39.67
74466;BME280;62916;50.044;15.938;2023-05-27T08:58:33;99975.05;;;23.09;39.70
74466;BME280;62916;50.044;15.938;2023-05-27T09:01:04;99972.66;;;23.09;39.71
74466;BME280;62916;50.044;15.938;2023-05-27T09:03:35;99964.37;;;23.10;39.79
74466;BME280;62916;50.044;15.938;2023-05-27T09:06:07;99965.48;;;23.11;39.92
74466;BME280;62916;50.044;15.938;2023-05-27T09:08:38;99965.56;;;23.13;39.75
74466;BME280;62916;50.044;15.938;2023-05-27T09:11:24;99961.70;;;23.13;39.66
74466;BME280;62916;50.044;15.938;2023-05-27T09:13:56;99956.50;;;23.13;39.70
74466;BME280;62916;50.044;15.938;2023-05-27T09:16:26;99953.02;;;23.14;39.83
74466;BME280;62916;50.044;15.938;2023-05-27T09:18:58;99952.27;;;23.15;39.81
74466;BME280;62916;50.044;15.938;2023-05-27T09:21:29;99946.13;;;23.14;39.85
74466;BME280;62916;50.044;15.938;2023-05-27T09:24:00;99942.48;;;23.12;39.57
74466;BME280;62916;50.044;15.938;2023-05-27T09:26:33;99939.83;;;23.09;39.60
74466;BME280;62916;50.044;15.938;2023-05-27T09:29:07;99940.61;;;23.07;39.67
74466;BME280;62916;50.044;15.938;2023-05-27T09:31:41;99935.65;;;23.07;39.68
74466;BME280;62916;50.044;15.938;2023-05-27T09:34:13;99935.38;;;23.07;39.75
74466;BME280;62916;50.044;15.938;2023-05-27T09:36:46;99933.36;;;23.08;39.85
74466;BME280;62916;50.044;15.938;2023-05-27T09:39:19;99934.11;;;23.11;40.08
74466;BME280;62916;50.044;15.938;2023-05-27T09:41:54;99942.02;;;23.16;39.97
74466;BME280;62916;50.044;15.938;2023-05-27T09:44:29;99934.83;;;23.18;40.00
74466;BME280;62916;50.044;15.938;2023-05-27T09:47:02;99932.45;;;23.21;39.97
74466;BME280;62916;50.044;15.938;2023-05-27T09:49:35;99926.03;;;23.23;39.93
74466;BME280;62916;50.044;15.938;2023-05-27T09:52:08;99919.91;;;23.26;39.98
74466;BME280;62916;50.044;15.938;2023-05-27T09:54:40;99924.71;;;23.30;40.06
74466;BME280;62916;50.044;15.938;2023-05-27T09:57:13;99922.64;;;23.32;39.90
74466;BME280;62916;50.044;15.938;2023-05-27T09:59:46;99916.88;;;23.34;39.99
74466;BME280;62916;50.044;15.938;2023-05-27T10:02:19;99912.77;;;23.36;39.92
74466;BME280;62916;50.044;15.938;2023-05-27T10:04:51;99913.00;;;23.39;40.07
74466;BME280;62916;50.044;15.938;2023-05-27T10:07:24;99913.11;;;23.40;40.18
74466;BME280;62916;50.044;15.938;2023-05-27T10:10:04;99909.81;;;23.43;40.23
74466;BME280;62916;50.044;15.938;2023-05-27T10:12:37;99909.88;;;23.45;40.38
74466;BME280;62916;50.044;15.938;2023-05-27T10:15:12;99908.26;;;23.46;40.47
74466;BME280;62916;50.044;15.938;2023-05-27T10:17:54;99904.38;;;23.49;40.53
74466;BME280;62916;50.044;15.938;2023-05-27T10:20:32;99901.86;;;23.52;40.50
74466;BME280;62916;50.044;15.938;2023-05-27T10:23:13;99897.95;;;23.55;40.66
74466;BME280;62916;50.044;15.938;2023-05-27T10:25:49;99898.94;;;23.56;40.60
74466;BME280;62916;50.044;15.938;2023-05-27T10:28:28;99901.26;;;23.59;40.69
74466;BME280;62916;50.044;15.938;2023-05-27T10:31:09;99901.36;;;23.59;40.55
74466;BME280;62916;50.044;15.938;2023-05-27T10:33:42;99900.52;;;23.61;40.71
74466;BME280;62916;50.044;15.938;2023-05-27T10:36:15;99897.89;;;23.64;40.72
74466;BME280;62916;50.044;15.938;2023-05-27T10:38:54;99896.58;;;23.66;40.73
74466;BME280;62916;50.044;15.938;2023-05-27T10:41:26;99895.58;;;23.66;40.82
74466;BME280;62916;50.044;15.938;2023-05-27T10:43:57;99894.49;;;23.68;40.82
74466;BME280;62916;50.044;15.938;2023-05-27T10:46:39;99896.31;;;23.70;40.82
74466;BME280;62916;50.044;15.938;2023-05-27T10:49:14;99885.35;;;23.71;40.83
74466;BME280;62916;50.044;15.938;2023-05-27T10:51:49;99886.38;;;23.72;40.83
74466;BME280;62916;50.044;15.938;2023-05-27T10:54:20;99878.30;;;23.74;40.89
74466;BME280;62916;50.044;15.938;2023-05-27T10:56:58;99877.95;;;23.76;40.88
74466;BME280;62916;50.044;15.938;2023-05-27T10:59:33;99875.67;;;23.79;40.87
74466;BME280;62916;50.044;15.938;2023-05-27T11:02:07;99875.12;;;23.81;40.93
74466;BME280;62916;50.044;15.938;2023-05-27T11:04:39;99868.21;;;23.82;40.90
74466;BME280;62916;50.044;15.938;2023-05-27T11:07:10;99866.88;;;23.83;40.88
74466;BME280;62916;50.044;15.938;2023-05-27T11:09:48;99863.89;;;23.85;40.96
74466;BME280;62916;50.044;15.938;2023-05-27T11:12:21;99860.88;;;23.86;40.94
74466;BME280;62916;50.044;15.938;2023-05-27T11:14:53;99855.94;;;23.86;40.89
74466;BME280;62916;50.044;15.938;2023-05-27T11:17:25;99851.77;;;23.87;40.92
74466;BME280;62916;50.044;15.938;2023-05-27T11:19:56;99852.83;;;23.89;40.94
74466;BME280;62916;50.044;15.938;2023-05-27T11:22:28;99845.17;;;23.91;40.99
74466;BME280;62916;50.044;15.938;2023-05-27T11:25:02;99845.54;;;23.91;41.04
74466;BME280;62916;50.044;15.938;2023-05-27T11:27:37;99841.61;;;23.92;40.86
74466;BME280;62916;50.044;15.938;2023-05-27T11:30:13;99839.53;;;23.93;40.99
74466;BME280;62916;50.044;15.938;2023-05-27T11:32:44;99832.77;;;23.94;40.96
74466;BME280;62916;50.044;15.938;2023-05-27T11:35:18;99827.25;;;23.95;41.10
74466;BME280;62916;50.044;15.938;2023-05-27T11:37:50;99823.36;;;23.96;40.95
74466;BME280;62916;50.044;15.938;2023-05-27T11:40:21;99823.16;;;23.97;41.06
74466;BME280;62916;50.044;15.938;2023-05-27T11:42:52;99828.53;;;23.98;41.04
74466;BME280;62916;50.044;15.938;2023-05-27T11:45:23;99830.88;;;23.99;40.98
74466;BME280;62916;50.044;15.938;2023-05-27T11:47:54;99829.73;;;24.00;41.11
74466;BME280;62916;50.044;15.938;2023-05-27T11:50:26;99827.36;;;24.01;41.07
74466;BME280;62916;50.044;15.938;2023-05-27T11:53:02;99825.05;;;24.02;40.97
74466;BME280;62916;50.044;15.938;2023-05-27T11:55:33;99816.86;;;24.02;41.01
74466;BME280;62916;50.044;15.938;2023-05-27T11:58:04;99818.77;;;24.03;41.07
74466;BME280;62916;50.044;15.938;2023-05-27T12:00:35;99815.98;;;24.04;41.08
74466;BME280;62916;50.044;15.938;2023-05-27T12:03:06;99811.31;;;24.04;41.17
74466;BME280;62916;50.044;15.938;2023-05-27T12:05:37;99806.83;;;24.06;41.06
74466;BME280;62916;50.044;15.938;2023-05-27T12:08:08;99801.76;;;24.06;41.13
74466;BME280;62916;50.044;15.938;2023-05-27T12:10:39;99795.92;;;24.06;41.09
74466;BME280;62916;50.044;15.938;2023-05-27T12:13:10;99792.33;;;24.05;41.14
74466;BME280;62916;50.044;15.938;2023-05-27T12:15:43;99795.10;;;24.07;41.22
74466;BME280;62916;50.044;15.938;2023-05-27T12:18:14;99791.73;;;24.08;41.14
74466;BME280;62916;50.044;15.938;2023-05-27T12:20:46;99793.14;;;24.08;41.07
74466;BME280;62916;50.044;15.938;2023-05-27T12:23:17;99793.23;;;24.09;41.09
74466;BME280;62916;50.044;15.938;2023-05-27T12:25:49;99794.75;;;24.10;41.17
74466;BME280;62916;50.044;15.938;2023-05-27T12:28:21;99792.42;;;24.10;41.06
74466;BME280;62916;50.044;15.938;2023-05-27T12:30:52;99786.73;;;24.11;41.08
74466;BME280;62916;50.044;15.938;2023-05-27T12:33:23;99784.96;;;24.11;41.00
74466;BME280;62916;50.044;15.938;2023-05-27T12:35:54;99787.67;;;24.13;41.12
74466;BME280;62916;50.044;15.938;2023-05-27T12:38:25;99787.58;;;24.14;41.21
74466;BME280;62916;50.044;15.938;2023-05-27T12:40:56;99781.31;;;24.15;41.21
74466;BME280;62916;50.044;15.938;2023-05-27T12:43:28;99781.16;;;24.16;41.21
74466;BME280;62916;50.044;15.938;2023-05-27T12:45:59;99781.63;;;24.16;41.16
74466;BME280;62916;50.044;15.938;2023-05-27T12:48:30;99773.62;;;24.16;41.29
74466;BME280;62916;50.044;15.938;2023-05-27T12:51:01;99774.77;;;24.18;41.35
74466;BME280;62916;50.044;15.938;2023-05-27T12:53:32;99772.41;;;24.19;41.25
74466;BME280;62916;50.044;15.938;2023-05-27T12:56:03;99774.41;;;24.21;41.30
74466;BME280;62916;50.044;15.938;2023-05-27T12:58:35;99770.57;;;24.21;41.20
74466;BME280;62916;50.044;15.938;2023-05-27T13:01:06;99770.65;;;24.20;41.33
74466;BME280;62916;50.044;15.938;2023-05-27T13:03:37;99770.34;;;24.23;41.27
74466;BME280;62916;50.044;15.938;2023-05-27T13:06:08;99764.23;;;24.24;41.23
74466;BME280;62916;50.044;15.938;2023-05-27T13:08:40;99762.16;;;24.23;41.01
74466;BME280;62916;50.044;15.938;2023-05-27T13:11:11;99766.11;;;24.20;40.81
74466;BME280;62916;50.044;15.938;2023-05-27T13:13:42;99765.42;;;24.17;40.69